Country
Station

 

Weather  for  Buenaventura  -  Colombia    Colombia

  
32 °C (90 °F)
    
 
 

Current METAR for Buenaventura is :

SKBU 262000Z 29005KT 9999 SCT060 32/25 A2970

 

This is a report for Buenaventura - Colombia.
 
The report was made 596 hours and 49 minutes ago, at 20:00 UTC .
The wind was blowing at a speed of 2.6 meters per second (5.8 miles per hour) from west/northwest (290°).
 
The temperature was 32 °C (90 °F), with a dew-point at 25 °C (77 °F).
The temperature felt like 40 °C (104 °F).
 
The atmospheric pressure was 1006 hPa (29.70 inHg).
The relative humidity was 66.6%.
 
There were scattered clouds at a height of 1829 meters (6000 feet).
 
The overall visibility was greater than 10 kilometers (6.2 miles).
 

 
 
 
 

Country :   A   B   C   D   E   F   G   H   I   J   K   L   M   N   O   P   Q   R   S   T   U   V   W   Y   Z

 

Site Info  |  Disclaimer  |  Credits  |  Privacy
Contact us  |  Add to favorites
© 2013-2019 METARs - All rights reserved